createdAt,value
2019-01-13T00:02:17.410Z,17.62
2019-01-13T00:04:47.777Z,15.80
2019-01-13T00:07:18.175Z,12.00
2019-01-13T00:09:48.568Z,13.83
2019-01-13T00:12:19.011Z,18.42
2019-01-13T00:14:49.314Z,16.67
2019-01-13T00:17:19.720Z,14.38
2019-01-13T00:19:50.065Z,17.95
2019-01-13T00:22:20.416Z,15.08
2019-01-13T00:24:50.814Z,15.03
2019-01-13T00:27:22.281Z,14.05
2019-01-13T00:29:53.512Z,16.02
2019-01-13T00:32:23.847Z,15.63
2019-01-13T00:34:54.163Z,17.07
2019-01-13T00:37:24.531Z,11.22
2019-01-13T00:39:54.858Z,14.60
2019-01-13T00:42:25.204Z,10.38
2019-01-13T00:44:55.517Z,11.10
2019-01-13T00:47:25.856Z,13.30
2019-01-13T00:49:56.197Z,13.93
2019-01-13T00:52:26.558Z,17.52
2019-01-13T00:54:56.896Z,12.60
2019-01-13T00:57:27.204Z,14.40
2019-01-13T00:59:58.500Z,11.30
2019-01-13T01:02:28.816Z,11.28
2019-01-13T01:04:59.633Z,13.25
2019-01-13T01:07:29.992Z,10.28
2019-01-13T01:10:00.352Z,10.75
2019-01-13T01:12:30.690Z,11.30
2019-01-13T01:15:01.042Z,13.13
2019-01-13T01:17:31.431Z,11.78
2019-01-13T01:20:01.832Z,14.95
2019-01-13T01:22:32.151Z,15.80
2019-01-13T01:25:02.495Z,11.12
2019-01-13T01:27:32.831Z,10.85
2019-01-13T01:30:06.425Z,15.20
2019-01-13T01:32:36.795Z,10.40
2019-01-13T01:35:07.448Z,12.20
2019-01-13T01:37:37.788Z,10.32
2019-01-13T01:40:11.662Z,12.45
2019-01-13T01:42:42.008Z,11.40
2019-01-13T01:45:13.911Z,8.45
2019-01-13T01:47:44.261Z,10.78
2019-01-13T01:50:14.787Z,11.15
2019-01-13T01:52:45.376Z,12.80
2019-01-13T01:55:20.484Z,9.28
2019-01-13T01:57:50.811Z,9.83
2019-01-13T02:00:30.100Z,10.15
2019-01-13T02:03:00.443Z,11.05
2019-01-13T02:05:30.745Z,10.93
2019-01-13T02:08:01.076Z,11.03
2019-01-13T02:10:31.392Z,11.20
2019-01-13T02:13:01.768Z,9.90
2019-01-13T02:15:32.081Z,9.00
2019-01-13T02:18:02.393Z,9.50
2019-01-13T02:20:32.773Z,11.83
2019-01-13T02:23:03.190Z,10.13
2019-01-13T02:25:33.516Z,11.03
2019-01-13T02:28:03.844Z,7.58
2019-01-13T02:30:35.015Z,9.73
2019-01-13T02:33:05.427Z,9.65
2019-01-13T02:35:35.763Z,7.70
2019-01-13T02:38:06.104Z,10.35
2019-01-13T02:40:36.419Z,9.25
2019-01-13T02:43:06.746Z,7.53
2019-01-13T02:45:37.068Z,7.90
2019-01-13T02:48:07.364Z,8.18
2019-01-13T02:50:37.718Z,9.98
2019-01-13T02:53:08.026Z,8.40
2019-01-13T02:55:38.362Z,10.55
2019-01-13T02:58:08.700Z,7.03
2019-01-13T03:00:39.072Z,7.55
2019-01-13T03:03:09.402Z,7.20
2019-01-13T03:05:39.728Z,9.98
2019-01-13T03:08:10.108Z,10.32
2019-01-13T03:10:40.416Z,5.37
2019-01-13T03:13:10.869Z,8.58
2019-01-13T03:15:41.211Z,7.33
2019-01-13T03:18:11.540Z,7.20
2019-01-13T03:20:41.823Z,7.05
2019-01-13T03:23:12.191Z,6.40
2019-01-13T03:25:42.580Z,7.28
2019-01-13T03:28:13.852Z,7.08
2019-01-13T03:30:44.202Z,6.00
2019-01-13T03:33:14.504Z,7.92
2019-01-13T03:35:45.438Z,10.53
2019-01-13T03:38:15.817Z,8.70
2019-01-13T03:40:46.113Z,6.67
2019-01-13T03:43:16.434Z,5.97
2019-01-13T03:45:47.826Z,9.93
2019-01-13T03:48:18.120Z,5.35
2019-01-13T03:50:48.492Z,7.35
2019-01-13T03:53:18.772Z,8.78
2019-01-13T03:55:49.135Z,6.65
2019-01-13T03:58:19.460Z,8.40
2019-01-13T04:00:49.756Z,9.78
2019-01-13T04:03:20.078Z,8.20
2019-01-13T04:05:50.670Z,7.53
2019-01-13T04:08:21.080Z,8.43
2019-01-13T04:10:51.443Z,6.65
2019-01-13T04:13:21.751Z,6.47
2019-01-13T04:16:16.975Z,5.70
2019-01-13T04:18:47.344Z,9.70
2019-01-13T04:21:17.652Z,6.92
2019-01-13T04:23:47.967Z,10.25
2019-01-13T04:26:18.384Z,8.75
2019-01-13T04:28:48.747Z,7.10
2019-01-13T04:31:26.347Z,7.37
2019-01-13T04:33:50.995Z,6.87
2019-01-13T04:36:21.389Z,8.95
2019-01-13T04:38:51.676Z,7.62
2019-01-13T04:41:22.024Z,8.83
2019-01-13T04:43:52.303Z,8.28
2019-01-13T04:46:22.641Z,5.20
2019-01-13T04:48:53.922Z,9.25
2019-01-13T04:51:24.286Z,11.78
2019-01-13T04:53:54.665Z,13.75
2019-01-13T04:56:24.958Z,8.58
2019-01-13T04:58:55.362Z,7.40
2019-01-13T05:01:25.711Z,8.58
2019-01-13T05:03:56.992Z,6.78
2019-01-13T05:06:27.267Z,8.98
2019-01-13T05:08:57.666Z,11.78
2019-01-13T05:11:27.984Z,7.40
2019-01-13T05:13:58.345Z,9.63
2019-01-13T05:16:28.627Z,10.32
2019-01-13T05:18:58.967Z,9.73
2019-01-13T05:21:29.356Z,10.60
2019-01-13T05:23:59.729Z,10.75
2019-01-13T05:26:30.043Z,8.63
2019-01-13T05:29:00.415Z,8.70
2019-01-13T05:31:30.703Z,9.33
2019-01-13T05:34:02.108Z,8.18
2019-01-13T05:36:32.428Z,8.50
2019-01-13T05:39:03.081Z,11.25
2019-01-13T05:41:33.386Z,10.50
2019-01-13T05:44:03.738Z,9.70
2019-01-13T05:46:34.039Z,8.53
2019-01-13T05:49:04.528Z,8.88
2019-01-13T05:51:34.820Z,9.00
2019-01-13T05:54:05.164Z,9.10
2019-01-13T05:56:35.457Z,11.43
2019-01-13T05:59:05.806Z,12.07
2019-01-13T06:01:36.156Z,7.90
2019-01-13T06:04:06.471Z,10.75
2019-01-13T06:06:36.803Z,7.72
2019-01-13T06:09:08.511Z,8.83
2019-01-13T06:11:38.909Z,6.33
2019-01-13T06:14:09.240Z,14.20
2019-01-13T06:16:39.568Z,11.45
2019-01-13T06:19:09.906Z,10.05
2019-01-13T06:21:40.208Z,10.35
2019-01-13T06:24:10.609Z,7.72
2019-01-13T06:26:40.880Z,7.10
2019-01-13T06:29:11.264Z,8.85
2019-01-13T06:31:41.656Z,10.18
2019-01-13T06:34:12.726Z,8.68
2019-01-13T06:36:43.033Z,13.62
2019-01-13T06:39:13.374Z,8.60
2019-01-13T06:41:43.730Z,10.30
2019-01-13T06:44:14.111Z,14.23
2019-01-13T06:46:44.436Z,9.33
2019-01-13T06:49:15.060Z,10.18
2019-01-13T06:51:45.504Z,11.78
2019-01-13T06:54:15.844Z,12.78
2019-01-13T06:56:46.164Z,11.93
2019-01-13T06:59:16.505Z,15.32
2019-01-13T07:01:46.843Z,9.30
2019-01-13T07:04:18.364Z,14.60
2019-01-13T07:06:48.728Z,13.62
2019-01-13T07:09:19.028Z,12.60
2019-01-13T07:11:49.431Z,12.53
2019-01-13T07:14:19.714Z,12.90
2019-01-13T07:16:50.077Z,9.75
2019-01-13T07:19:20.414Z,10.90
2019-01-13T07:21:50.769Z,11.25
2019-01-13T07:24:21.184Z,10.70
2019-01-13T07:26:51.510Z,11.88
2019-01-13T07:29:21.808Z,11.20
2019-01-13T07:31:52.228Z,10.63
2019-01-13T07:34:23.683Z,11.60
2019-01-13T07:36:54.046Z,11.65
2019-01-13T07:39:24.500Z,13.25
2019-01-13T07:41:54.895Z,13.03
2019-01-13T07:44:25.272Z,10.70
2019-01-13T07:46:55.621Z,14.98
2019-01-13T07:49:25.984Z,12.03
2019-01-13T07:51:56.336Z,11.97
2019-01-13T07:54:26.660Z,11.75
2019-01-13T07:56:56.962Z,9.53
2019-01-13T07:59:27.314Z,8.33
2019-01-13T08:01:57.642Z,11.70
2019-01-13T08:04:30.172Z,13.95
2019-01-13T08:07:00.464Z,15.45
2019-01-13T08:09:30.831Z,13.00
2019-01-13T08:12:01.178Z,12.90
2019-01-13T08:14:31.496Z,12.90
2019-01-13T08:17:01.824Z,14.83
2019-01-13T08:19:32.161Z,12.45
2019-01-13T08:22:02.464Z,14.38
2019-01-13T08:24:32.881Z,13.35
2019-01-13T08:27:03.218Z,10.63
2019-01-13T08:29:33.552Z,10.78
2019-01-13T08:32:03.902Z,13.18
2019-01-13T08:34:35.272Z,14.13
2019-01-13T08:37:05.933Z,10.88
2019-01-13T08:39:36.376Z,12.80
2019-01-13T08:42:06.774Z,11.85
2019-01-13T08:44:37.076Z,15.72
2019-01-13T08:47:07.425Z,13.53
2019-01-13T08:49:37.748Z,12.05
2019-01-13T08:52:08.101Z,11.68
2019-01-13T08:54:38.466Z,11.40
2019-01-13T08:57:08.852Z,13.45
2019-01-13T08:59:39.218Z,11.93
2019-01-13T09:02:09.498Z,8.63
2019-01-13T09:04:39.850Z,10.03
2019-01-13T09:07:10.204Z,10.65
2019-01-13T09:09:40.571Z,14.30
2019-01-13T09:12:10.969Z,11.40
2019-01-13T09:14:50.634Z,15.23
2019-01-13T09:17:21.008Z,12.65
2019-01-13T09:19:53.712Z,11.22
2019-01-13T09:22:24.186Z,12.23
2019-01-13T09:24:54.468Z,11.00
2019-01-13T09:27:24.946Z,10.63
2019-01-13T09:29:55.395Z,12.65
2019-01-13T09:32:25.908Z,10.32
2019-01-13T09:34:56.648Z,11.55
2019-01-13T09:37:27.151Z,9.95
2019-01-13T09:39:57.562Z,14.05
2019-01-13T09:42:28.220Z,11.28
2019-01-13T09:44:58.652Z,13.15
2019-01-13T09:47:29.192Z,12.40
2019-01-13T09:49:59.802Z,9.70
2019-01-13T09:52:30.384Z,12.93
2019-01-13T09:55:00.751Z,14.03
2019-01-13T09:57:31.268Z,10.68
2019-01-13T10:00:01.579Z,10.53
2019-01-13T10:02:32.144Z,11.75
2019-01-13T10:05:03.999Z,10.05
2019-01-13T10:07:34.614Z,12.85
2019-01-13T10:10:06.595Z,10.75
2019-01-13T10:15:53.137Z,12.23
2019-01-13T10:18:23.540Z,12.75
2019-01-13T10:20:56.166Z,13.35
2019-01-13T10:23:26.841Z,12.13
2019-01-13T10:25:57.393Z,11.28
2019-01-13T10:28:27.733Z,11.90
2019-01-13T10:31:03.160Z,11.40
2019-01-13T10:33:30.977Z,10.68
2019-01-13T10:36:01.301Z,9.93
2019-01-13T10:38:31.614Z,12.35
2019-01-13T10:41:01.972Z,14.07
2019-01-13T10:43:32.324Z,14.53
2019-01-13T10:46:02.811Z,10.18
2019-01-13T10:48:34.222Z,13.62
2019-01-13T10:51:04.534Z,11.25
2019-01-13T10:53:34.888Z,13.65
2019-01-13T10:56:05.205Z,12.58
2019-01-13T10:58:35.536Z,14.93
2019-01-13T11:01:05.995Z,12.78
2019-01-13T11:03:36.342Z,13.75
2019-01-13T11:06:06.760Z,12.53
2019-01-13T11:08:37.107Z,14.80
2019-01-13T11:11:07.477Z,14.63
2019-01-13T11:13:38.851Z,11.20
2019-01-13T11:16:09.265Z,11.68
2019-01-13T11:18:39.572Z,10.98
2019-01-13T11:21:10.052Z,13.78
2019-01-13T11:23:40.424Z,12.33
2019-01-13T11:26:10.796Z,11.90
2019-01-13T11:28:41.225Z,10.72
2019-01-13T11:31:11.587Z,15.45
2019-01-13T11:33:41.909Z,9.23
2019-01-13T11:36:12.340Z,12.13
2019-01-13T11:38:42.646Z,8.75
2019-01-13T11:41:13.011Z,11.70
2019-01-13T11:43:43.468Z,8.10
2019-01-13T11:46:13.807Z,11.35
2019-01-13T11:48:44.215Z,8.78
2019-01-13T11:51:14.481Z,10.18
2019-01-13T11:53:44.830Z,7.67
2019-01-13T11:56:15.146Z,9.10
2019-01-13T11:58:45.493Z,10.40
2019-01-13T12:01:16.204Z,11.73
2019-01-13T12:03:46.554Z,10.25
2019-01-13T12:06:17.809Z,10.90
2019-01-13T12:08:48.182Z,10.60
2019-01-13T12:11:18.516Z,10.18
2019-01-13T12:13:48.865Z,13.22
2019-01-13T12:16:19.184Z,9.40
2019-01-13T12:18:49.509Z,9.80
2019-01-13T12:21:19.905Z,10.98
2019-01-13T12:23:50.272Z,8.93
2019-01-13T12:26:20.601Z,7.62
2019-01-13T12:28:51.001Z,9.48
2019-01-13T12:31:21.277Z,7.90
2019-01-13T12:33:51.582Z,10.72
2019-01-13T12:36:21.885Z,11.22
2019-01-13T12:38:52.256Z,9.58
2019-01-13T12:41:22.565Z,8.28
2019-01-13T12:43:52.951Z,7.55
2019-01-13T12:46:23.304Z,8.38
2019-01-13T12:48:53.609Z,7.72
2019-01-13T12:51:23.935Z,9.13
2019-01-13T12:53:54.238Z,8.85
2019-01-13T12:56:24.599Z,6.87
2019-01-13T12:58:54.929Z,9.55
2019-01-13T13:01:25.413Z,9.38
2019-01-13T13:03:55.721Z,8.40
2019-01-13T13:06:26.272Z,9.15
2019-01-13T13:08:56.549Z,7.78
2019-01-13T13:11:26.947Z,7.40
2019-01-13T13:13:57.247Z,7.30
2019-01-13T13:16:27.588Z,9.10
2019-01-13T13:18:57.913Z,7.35
2019-01-13T13:21:28.292Z,9.70
2019-01-13T13:23:58.611Z,7.97
2019-01-13T13:26:28.960Z,9.10
2019-01-13T13:28:59.271Z,8.40
2019-01-13T13:31:29.633Z,9.63
2019-01-13T13:33:59.974Z,10.15
2019-01-13T13:36:31.366Z,10.10
2019-01-13T13:39:01.808Z,9.13
2019-01-13T13:41:33.560Z,8.93
2019-01-13T13:44:04.192Z,11.80
2019-01-13T13:46:34.482Z,11.55
2019-01-13T13:49:04.896Z,11.40
2019-01-13T13:51:35.374Z,10.78
2019-01-13T13:54:06.002Z,11.85
2019-01-13T13:56:36.368Z,14.47
2019-01-13T13:59:06.702Z,13.28
2019-01-13T14:01:37.079Z,14.83
2019-01-13T14:04:07.388Z,9.33
2019-01-13T14:06:37.775Z,13.65
2019-01-13T14:09:09.500Z,16.90
2019-01-13T14:11:39.844Z,16.85
2019-01-13T14:14:10.170Z,13.03
2019-01-13T14:16:40.514Z,13.75
2019-01-13T14:19:10.833Z,15.48
2019-01-13T14:21:41.275Z,13.98
2019-01-13T14:24:11.608Z,15.88
2019-01-13T14:26:41.992Z,11.55
2019-01-13T14:29:12.322Z,15.35
2019-01-13T14:31:43.448Z,12.25
2019-01-13T14:34:13.828Z,12.63
2019-01-13T14:36:44.318Z,17.48
2019-01-13T14:39:14.694Z,17.12
2019-01-13T14:41:45.074Z,14.63
2019-01-13T14:44:15.515Z,11.50
2019-01-13T14:46:45.855Z,14.38
2019-01-13T14:49:16.206Z,10.80
2019-01-13T14:51:46.532Z,12.25
2019-01-13T14:54:16.894Z,15.18
2019-01-13T14:56:47.232Z,13.93
2019-01-13T14:59:17.612Z,13.45
2019-01-13T15:01:47.948Z,12.65
2019-01-13T15:04:18.284Z,11.10
2019-01-13T15:06:49.736Z,11.97
2019-01-13T15:09:20.065Z,11.38
2019-01-13T15:11:50.421Z,17.65
2019-01-13T15:14:20.746Z,13.00
2019-01-13T15:16:51.154Z,13.53
2019-01-13T15:19:21.472Z,11.08
2019-01-13T15:21:51.812Z,15.60
2019-01-13T15:24:22.256Z,12.90
2019-01-13T15:26:52.611Z,14.38
2019-01-13T15:29:22.982Z,16.35
2019-01-13T15:31:53.307Z,12.65
2019-01-13T15:34:23.680Z,14.05
2019-01-13T15:36:54.880Z,16.80
2019-01-13T15:39:25.204Z,11.08
2019-01-13T15:41:55.519Z,11.45
2019-01-13T15:44:26.818Z,13.43
2019-01-13T15:46:57.244Z,10.45
2019-01-13T15:49:27.614Z,11.48
2019-01-13T15:51:58.007Z,13.65
2019-01-13T15:54:33.418Z,13.25
2019-01-13T15:57:03.756Z,10.85
2019-01-13T15:59:34.065Z,15.63
2019-01-13T16:02:04.444Z,12.28
2019-01-13T16:04:34.830Z,12.50
2019-01-13T16:07:05.561Z,9.58
2019-01-13T16:09:35.914Z,12.98
2019-01-13T16:12:06.417Z,11.00
2019-01-13T16:14:37.455Z,11.80
2019-01-13T16:17:07.987Z,8.55
2019-01-13T16:19:39.314Z,8.90
2019-01-13T16:22:09.932Z,12.35
2019-01-13T16:24:40.363Z,10.78
2019-01-13T16:27:10.686Z,13.35
2019-01-13T16:29:41.052Z,10.28
2019-01-13T16:32:13.131Z,9.20
2019-01-13T16:34:43.538Z,9.33
2019-01-13T16:37:13.947Z,12.03
2019-01-13T16:39:44.354Z,10.45
2019-01-13T16:42:14.774Z,10.72
2019-01-13T16:44:46.376Z,10.53
2019-01-13T16:47:16.734Z,8.85
2019-01-13T16:49:47.065Z,8.13
2019-01-13T16:52:18.804Z,9.65
2019-01-13T16:54:49.116Z,10.38
2019-01-13T16:57:19.496Z,10.18
2019-01-13T16:59:49.865Z,10.13
2019-01-13T17:02:20.189Z,11.35
2019-01-13T17:04:50.624Z,6.60
2019-01-13T17:07:22.311Z,7.75
2019-01-13T17:09:52.668Z,7.72
2019-01-13T17:12:22.982Z,9.53
2019-01-13T17:14:53.338Z,8.55
2019-01-13T17:17:23.650Z,7.87
2019-01-13T17:19:53.992Z,7.40
2019-01-13T17:22:24.292Z,8.28
2019-01-13T17:24:54.717Z,7.50
2019-01-13T17:27:25.036Z,7.45
2019-01-13T17:29:55.413Z,13.65
2019-01-13T17:32:25.721Z,7.15
2019-01-13T17:34:56.053Z,5.70
2019-01-13T17:37:27.785Z,10.10
2019-01-13T17:39:58.152Z,8.60
2019-01-13T17:42:28.464Z,8.28
2019-01-13T17:44:58.833Z,7.97
2019-01-13T17:47:29.161Z,8.20
2019-01-13T17:49:59.620Z,9.78
2019-01-13T17:52:29.960Z,6.67
2019-01-13T17:55:00.353Z,9.03
2019-01-13T17:57:31.161Z,6.75
2019-01-13T18:00:01.636Z,6.78
2019-01-13T18:02:31.997Z,7.35
2019-01-13T18:05:02.353Z,8.60
2019-01-13T18:07:33.390Z,8.60
2019-01-13T18:10:03.735Z,8.50
2019-01-13T18:12:34.087Z,9.83
2019-01-13T18:15:05.174Z,9.20
2019-01-13T18:17:35.539Z,6.90
2019-01-13T18:20:09.301Z,7.67
2019-01-13T18:22:39.698Z,7.62
2019-01-13T18:25:10.134Z,9.80
2019-01-13T18:27:40.545Z,9.80
2019-01-13T18:30:19.413Z,8.35
2019-01-13T18:32:49.901Z,6.58
2019-01-13T18:35:21.292Z,7.50
2019-01-13T18:37:52.127Z,8.38
2019-01-13T18:40:22.757Z,8.05
2019-01-13T18:42:53.137Z,9.35
2019-01-13T18:45:23.529Z,7.30
2019-01-13T18:47:53.857Z,7.53
2019-01-13T18:50:24.337Z,5.80
2019-01-13T18:53:04.456Z,8.28
2019-01-13T18:55:34.765Z,8.03
2019-01-13T18:58:05.436Z,6.45
2019-01-13T19:00:35.919Z,10.13
2019-01-13T19:03:06.426Z,8.90
2019-01-13T19:05:36.808Z,7.20
2019-01-13T19:08:07.486Z,5.83
2019-01-13T19:11:02.413Z,9.25
2019-01-13T19:14:44.398Z,6.83
2019-01-13T19:17:16.421Z,6.83
2019-01-13T19:20:11.125Z,10.63
2019-01-13T19:22:43.519Z,10.20
2019-01-13T19:25:25.819Z,6.95
2019-01-13T19:27:56.169Z,5.70
2019-01-13T19:30:26.565Z,9.65
2019-01-13T19:32:56.950Z,7.90
2019-01-13T19:35:27.246Z,9.63
2019-01-13T19:37:57.573Z,6.70
2019-01-13T19:40:27.946Z,5.72
2019-01-13T19:42:58.328Z,5.87
2019-01-13T19:45:28.933Z,9.38
2019-01-13T19:47:59.240Z,6.55
2019-01-13T19:50:29.665Z,7.95
2019-01-13T19:53:00.548Z,9.35
2019-01-13T19:55:31.049Z,7.40
2019-01-13T19:58:02.461Z,10.00
2019-01-13T20:00:35.575Z,6.30
2019-01-13T20:03:07.544Z,8.20
2019-01-13T20:05:37.901Z,7.17
2019-01-13T20:08:08.280Z,8.08
2019-01-13T20:10:40.104Z,7.72
2019-01-13T20:13:11.503Z,8.40
2019-01-13T20:15:45.176Z,8.73
2019-01-13T20:18:15.552Z,9.33
2019-01-13T20:20:45.909Z,8.13
2019-01-13T20:23:16.233Z,9.63
2019-01-13T20:25:46.620Z,7.33
2019-01-13T20:28:18.124Z,5.70
2019-01-13T20:30:48.569Z,9.13
2019-01-13T20:33:18.936Z,11.25
2019-01-13T20:35:49.334Z,7.20
2019-01-13T20:38:19.675Z,7.22
2019-01-13T20:40:51.845Z,6.58
2019-01-13T20:43:22.214Z,9.80
2019-01-13T20:45:52.672Z,8.70
2019-01-13T20:48:22.981Z,8.73
2019-01-13T20:50:53.426Z,9.28
2019-01-13T20:53:23.754Z,8.33
2019-01-13T20:55:54.121Z,10.88
2019-01-13T20:58:24.621Z,8.78
2019-01-13T21:00:54.969Z,9.13
2019-01-13T21:03:25.402Z,7.92
2019-01-13T21:05:55.856Z,7.65
2019-01-13T21:08:26.178Z,5.97
2019-01-13T21:10:56.580Z,8.30
2019-01-13T21:13:26.872Z,7.67
2019-01-13T21:15:57.272Z,5.97
2019-01-13T21:18:28.006Z,8.23
2019-01-13T21:20:58.369Z,6.95
2019-01-13T21:23:28.689Z,10.23
2019-01-13T21:25:59.031Z,6.35
2019-01-13T21:28:29.504Z,9.75
2019-01-13T21:30:59.874Z,9.48
2019-01-13T21:33:30.332Z,11.28
2019-01-13T21:36:00.688Z,8.80
2019-01-13T21:38:31.053Z,7.70
2019-01-13T21:41:02.780Z,9.33
2019-01-13T21:43:33.141Z,6.87
2019-01-13T21:46:03.633Z,7.87
2019-01-13T21:48:34.139Z,10.80
2019-01-13T21:51:04.569Z,8.35
2019-01-13T21:53:34.948Z,6.37
2019-01-13T21:56:05.436Z,6.33
2019-01-13T21:58:35.807Z,6.97
2019-01-13T22:01:07.749Z,6.85
2019-01-13T22:03:38.132Z,6.20
2019-01-13T22:06:10.120Z,7.62
2019-01-13T22:08:40.508Z,6.62
2019-01-13T22:11:11.144Z,4.85
2019-01-13T22:13:41.531Z,6.90
2019-01-13T22:16:13.022Z,4.78
2019-01-13T22:18:43.385Z,9.30
2019-01-13T22:21:13.830Z,5.42
2019-01-13T22:23:44.181Z,6.60
2019-01-13T22:26:14.599Z,8.05
2019-01-13T22:28:45.036Z,6.10
2019-01-13T22:31:22.169Z,6.90
2019-01-13T22:33:47.361Z,5.35
2019-01-13T22:36:17.824Z,6.15
2019-01-13T22:38:48.213Z,5.83
2019-01-13T22:41:19.456Z,7.47
2019-01-13T22:43:49.757Z,6.22
2019-01-13T22:46:20.113Z,7.70
2019-01-13T22:48:50.678Z,11.28
2019-01-13T22:51:21.092Z,7.30
2019-01-13T22:53:51.454Z,5.15
2019-01-13T22:56:21.764Z,6.40
2019-01-13T22:58:52.112Z,7.50
2019-01-13T23:01:40.326Z,6.55
2019-01-13T23:04:15.536Z,7.47
2019-01-13T23:06:45.956Z,7.47
2019-01-13T23:09:16.357Z,10.35
2019-01-13T23:11:46.697Z,9.70
2019-01-13T23:14:17.681Z,8.18
2019-01-13T23:16:48.078Z,9.68
2019-01-13T23:19:18.496Z,7.28
2019-01-13T23:21:48.796Z,9.88
2019-01-13T23:24:19.121Z,8.93
2019-01-13T23:26:49.468Z,7.58
2019-01-13T23:29:19.762Z,7.03
2019-01-13T23:31:50.190Z,10.13
2019-01-13T23:34:20.605Z,5.72
2019-01-13T23:36:50.901Z,7.03
2019-01-13T23:39:21.272Z,6.03
2019-01-13T23:41:52.257Z,7.72
2019-01-13T23:44:22.591Z,6.40
2019-01-13T23:46:52.901Z,6.72
2019-01-13T23:49:23.454Z,8.33
2019-01-13T23:51:53.812Z,8.48
2019-01-13T23:54:24.235Z,6.55
2019-01-13T23:56:54.544Z,7.05
2019-01-13T23:59:24.845Z,7.45
